Aérodrome :
LOGIN :

S'inscrire | Disclaimer

   EN    FR    IT 

 










Légende :    VFR   VFR Marginal   IFR   IFR Intensif   IFR Très Intensif
Visi : 
Plafond : 
>= 8 km
>= 3000ft
5 à 8 km
1000 à 3000 ft
1500m à 5 km
500 à 1000 ft
800 à 1500m
200 à 500 ft
< 800m
< 200 ft
Symboles :   Orages  Brouillard  Fortes neiges  Fortes précipitations  Vent > 20 kt
SIGMETs :   Divers  Orages  Givrage  Turbulence  Onde Orograph.  Cendres Volcan.






- Altitude de l'aérodrome : 425 ft
- Code IATA : DTM


EDLW - Dortmund

DERNIER METAR :
  • 070850Z 22012KT 9999 SCT030 15/07 Q1005

METARs EXPIRÉS :
  • 070820Z 22012KT 9999 SCT027 BKN033 BKN039 13/07 Q1005
  • 070750Z 22013KT 9999 SCT025 BKN042 14/07 Q1005
  • 070720Z 21012KT 9999 SCT023 BKN035 12/07 Q1005
  • 070650Z 21013KT 9999 BKN023 BKN030 11/07 Q1004
  • 070620Z 20011KT 9999 FEW028 11/06 Q1004

TAF TAF EDLW
Valide du 07 à 06h jusqu'au 08 à 06h UTC


070500Z 0706/0806 21008KT 9999 SCT040
BECMG 0706/0708 25013KT
PROB40
TEMPO 0709/0712 24015G25KT
BECMG 0713/0715 26008KT
BECMG 0718/0720 19005KT



MET'MAP, la Météo Aéronautique d'un coup d'oeil ! - Copyright ORBIFLY Décembre 2007 - Disclaimer

ORBIFLY MET'MAP TEAM :

Programmation & Développement : Alexandra Zaïnal
Sur une idée originale de : Baudouin d'Aumeries
Assistance à la programmation : Marc-Olivier Méhu
Soutien technique & logistique : Manuel Goepfert

Contact : metmap@orbifly.com




SOURCES & CREDITS :

   NOAA